createdAt,value
2019-04-16T00:00:26.525Z,47.67
2019-04-16T00:02:58.515Z,47.77
2019-04-16T00:05:44.163Z,47.79
2019-04-16T00:08:27.142Z,47.95
2019-04-16T00:10:54.550Z,47.70
2019-04-16T00:13:28.751Z,47.74
2019-04-16T00:16:01.641Z,48.10
2019-04-16T00:18:32.761Z,48.00
2019-04-16T00:21:22.000Z,48.60
2019-04-16T00:24:19.177Z,48.70
2019-04-16T00:26:58.050Z,48.92
2019-04-16T00:29:32.565Z,48.89
2019-04-16T00:32:07.867Z,49.03
2019-04-16T00:34:37.209Z,49.56
2019-04-16T00:37:08.195Z,49.25
2019-04-16T00:39:39.509Z,49.22
2019-04-16T00:42:10.713Z,49.19
2019-04-16T00:44:42.029Z,49.33
2019-04-16T00:47:13.026Z,49.51
2019-04-16T00:49:44.457Z,49.54
2019-04-16T00:52:15.559Z,49.27
2019-04-16T00:54:46.825Z,49.63
2019-04-16T00:57:18.638Z,49.74
2019-04-16T00:59:49.627Z,49.46
2019-04-16T01:02:20.747Z,49.23
2019-04-16T01:04:51.811Z,49.78
2019-04-16T01:07:23.791Z,50.01
2019-04-16T01:09:54.832Z,50.40
2019-04-16T01:12:25.978Z,50.12
2019-04-16T01:15:00.697Z,50.39
2019-04-16T01:17:29.701Z,50.50
2019-04-16T01:20:00.774Z,50.56
2019-04-16T01:22:31.753Z,50.29
2019-04-16T01:25:02.786Z,50.66
2019-04-16T01:27:37.224Z,50.56
2019-04-16T01:30:09.894Z,50.27
2019-04-16T01:32:49.740Z,50.72
2019-04-16T01:35:38.472Z,51.44
2019-04-16T01:38:28.587Z,51.34
2019-04-16T01:41:02.074Z,51.39
2019-04-16T01:43:33.361Z,51.10
2019-04-16T01:46:04.535Z,51.24
2019-04-16T01:48:38.637Z,51.31
2019-04-16T01:51:08.221Z,51.23
2019-04-16T01:53:40.217Z,51.40
2019-04-16T01:56:11.416Z,50.36
2019-04-16T01:58:42.839Z,51.24
2019-04-16T02:01:13.858Z,51.45
2019-04-16T02:03:48.617Z,50.77
2019-04-16T02:06:17.650Z,50.55
2019-04-16T02:08:48.661Z,51.61
2019-04-16T02:11:19.710Z,52.07
2019-04-16T02:13:50.683Z,52.54
2019-04-16T02:16:22.316Z,52.86
2019-04-16T02:18:54.378Z,52.43
2019-04-16T02:21:25.349Z,52.27
2019-04-16T02:23:56.428Z,52.06
2019-04-16T02:26:28.684Z,52.35
2019-04-16T02:28:59.684Z,52.18
2019-04-16T02:31:30.701Z,51.78
2019-04-16T02:34:01.664Z,52.14
2019-04-16T02:36:32.696Z,52.53
2019-04-16T02:39:07.241Z,52.33
2019-04-16T02:41:38.309Z,52.40
2019-04-16T02:44:14.045Z,52.95
2019-04-16T02:46:42.219Z,53.13
2019-04-16T02:49:13.174Z,52.98
2019-04-16T02:52:03.100Z,52.88
2019-04-16T02:54:39.579Z,52.10
2019-04-16T02:57:28.464Z,52.00
2019-04-16T03:00:04.424Z,51.83
2019-04-16T03:02:53.659Z,52.20
2019-04-16T03:05:28.978Z,52.23
2019-04-16T03:08:01.442Z,52.87
2019-04-16T03:10:32.326Z,53.89
2019-04-16T03:13:03.393Z,53.99
2019-04-16T03:15:52.310Z,53.42
2019-04-16T03:18:28.003Z,53.72
2019-04-16T03:20:59.038Z,53.75
2019-04-16T03:23:30.030Z,53.68
2019-04-16T03:26:01.404Z,53.54
2019-04-16T03:28:32.351Z,53.68
2019-04-16T03:31:08.068Z,53.71
2019-04-16T03:33:36.258Z,53.50
2019-04-16T03:36:07.426Z,53.29
2019-04-16T03:38:41.924Z,53.13
2019-04-16T03:41:11.416Z,53.12
2019-04-16T03:43:42.369Z,53.63
2019-04-16T03:46:14.183Z,53.61
2019-04-16T03:48:45.364Z,53.77
2019-04-16T03:51:16.414Z,53.90
2019-04-16T03:53:49.575Z,54.03
2019-04-16T03:56:20.138Z,53.94
2019-04-16T03:58:51.113Z,54.19
2019-04-16T04:01:22.169Z,54.35
2019-04-16T04:03:57.076Z,53.88
2019-04-16T04:06:26.230Z,53.98
2019-04-16T04:08:57.192Z,54.09
2019-04-16T04:11:28.915Z,54.14
2019-04-16T04:13:59.876Z,54.21
2019-04-16T04:16:33.535Z,54.80
2019-04-16T04:19:03.835Z,54.90
2019-04-16T04:21:34.817Z,54.92
2019-04-16T04:24:05.957Z,54.99
2019-04-16T04:26:41.211Z,54.93
2019-04-16T04:29:09.649Z,55.08
2019-04-16T04:31:40.571Z,55.25
2019-04-16T04:34:15.784Z,54.77
2019-04-16T04:36:44.249Z,54.87
2019-04-16T04:39:15.949Z,54.83
2019-04-16T04:41:47.159Z,55.12
2019-04-16T04:44:18.230Z,54.86
2019-04-16T04:46:49.290Z,54.78
2019-04-16T04:49:20.388Z,54.87
2019-04-16T04:51:51.496Z,54.85
2019-04-16T04:54:23.486Z,55.05
2019-04-16T04:56:56.387Z,55.10
2019-04-16T04:59:27.833Z,55.51
2019-04-16T05:01:59.154Z,55.65
2019-04-16T05:04:52.452Z,55.41
2019-04-16T05:07:25.763Z,55.22
2019-04-16T05:09:56.976Z,55.90
2019-04-16T05:12:29.105Z,56.06
2019-04-16T05:15:03.664Z,56.16
2019-04-16T05:17:35.525Z,56.43
2019-04-16T05:20:06.586Z,56.14
2019-04-16T05:22:38.629Z,56.20
2019-04-16T05:25:10.243Z,56.17
2019-04-16T05:27:41.668Z,56.25
2019-04-16T05:30:12.866Z,56.15
2019-04-16T05:32:43.862Z,56.08
2019-04-16T05:35:14.917Z,55.71
2019-04-16T05:37:48.471Z,55.94
2019-04-16T05:40:18.603Z,55.33
2019-04-16T05:42:52.539Z,55.56
2019-04-16T05:45:22.218Z,55.56
2019-04-16T05:47:53.203Z,55.03
2019-04-16T05:50:28.741Z,55.33
2019-04-16T05:52:58.601Z,55.22
2019-04-16T05:55:37.726Z,55.80
2019-04-16T05:58:08.823Z,55.94
2019-04-16T06:00:44.602Z,55.68
2019-04-16T06:03:20.628Z,55.33
2019-04-16T06:05:48.537Z,54.98
2019-04-16T06:08:19.872Z,54.65
2019-04-16T06:10:51.272Z,55.03
2019-04-16T06:13:49.224Z,55.15
2019-04-16T06:16:25.844Z,55.39
2019-04-16T06:19:19.142Z,54.90
2019-04-16T06:22:21.470Z,54.71
2019-04-16T06:25:08.247Z,55.07
2019-04-16T06:27:46.488Z,54.50
2019-04-16T06:30:35.188Z,54.39
2019-04-16T06:33:15.702Z,53.69
2019-04-16T06:36:10.224Z,53.40
2019-04-16T06:38:57.817Z,53.69
2019-04-16T06:41:52.726Z,53.93
2019-04-16T06:44:29.841Z,53.27
2019-04-16T06:47:04.560Z,53.21
2019-04-16T06:50:03.700Z,53.53
2019-04-16T06:52:42.009Z,53.37
2019-04-16T06:55:24.643Z,52.58
2019-04-16T06:58:07.970Z,52.48
2019-04-16T07:01:05.916Z,52.19
2019-04-16T07:03:51.488Z,52.13
2019-04-16T07:06:36.153Z,52.13
2019-04-16T07:09:23.382Z,51.78
2019-04-16T07:11:55.038Z,51.03
2019-04-16T07:17:20.873Z,50.27
2019-04-16T07:19:51.975Z,49.64
2019-04-16T07:22:23.072Z,49.26
2019-04-16T07:25:03.848Z,48.64
2019-04-16T07:27:45.401Z,48.39
2019-04-16T07:30:23.486Z,48.73
2019-04-16T07:33:19.612Z,48.96
2019-04-16T07:36:15.888Z,48.76
2019-04-16T07:39:28.773Z,48.89
2019-04-16T07:42:10.751Z,49.63
2019-04-16T07:44:57.058Z,49.79
2019-04-16T07:47:53.408Z,49.44
2019-04-16T07:50:39.267Z,49.52
2019-04-16T07:53:25.747Z,48.18
2019-04-16T07:55:59.652Z,48.97
2019-04-16T07:58:31.890Z,48.22
2019-04-16T08:01:05.115Z,47.77
2019-04-16T08:03:36.359Z,47.70
2019-04-16T08:06:10.709Z,48.27
2019-04-16T08:08:40.647Z,47.78
2019-04-16T08:11:11.778Z,47.16
2019-04-16T08:13:43.836Z,47.39
2019-04-16T08:16:14.996Z,46.62
2019-04-16T08:18:50.697Z,45.91
2019-04-16T08:21:22.739Z,45.96
2019-04-16T08:24:03.028Z,45.02
2019-04-16T08:26:34.130Z,45.20
2019-04-16T08:29:05.661Z,44.54
2019-04-16T08:31:40.856Z,43.68
2019-04-16T08:34:12.772Z,43.16
2019-04-16T08:36:44.002Z,42.53
2019-04-16T08:39:16.030Z,41.61
2019-04-16T08:41:52.144Z,41.72
2019-04-16T08:44:20.209Z,42.62
2019-04-16T08:46:51.357Z,42.05
2019-04-16T08:49:23.038Z,41.59
2019-04-16T08:52:01.571Z,42.01
2019-04-16T08:54:32.772Z,41.00
2019-04-16T08:57:03.957Z,40.93
2019-04-16T08:59:35.153Z,41.02
2019-04-16T09:02:07.154Z,41.12
2019-04-16T09:04:39.425Z,43.35
2019-04-16T09:07:29.549Z,42.55
2019-04-16T09:10:01.104Z,41.51
2019-04-16T09:12:32.529Z,41.79
2019-04-16T09:15:03.746Z,41.66
2019-04-16T09:17:38.128Z,41.32
2019-04-16T09:20:11.664Z,40.83
2019-04-16T09:22:49.301Z,40.81
2019-04-16T09:25:42.577Z,40.64
2019-04-16T09:28:25.808Z,40.90
2019-04-16T09:31:06.951Z,42.92
2019-04-16T09:33:48.073Z,43.50
2019-04-16T09:36:39.317Z,44.03
2019-04-16T09:39:20.237Z,43.33
2019-04-16T09:41:51.538Z,42.93
2019-04-16T09:44:22.692Z,41.87
2019-04-16T09:46:56.607Z,40.07
2019-04-16T09:49:26.587Z,40.45
2019-04-16T09:51:57.827Z,40.66
2019-04-16T09:54:32.389Z,40.85
2019-04-16T09:57:09.170Z,41.91
2019-04-16T09:59:47.742Z,40.80
2019-04-16T10:02:22.964Z,42.17
2019-04-16T10:04:54.101Z,39.64
2019-04-16T10:07:25.285Z,41.16
2019-04-16T10:09:56.408Z,40.72
2019-04-16T10:12:27.493Z,39.99
2019-04-16T10:14:58.585Z,40.08
2019-04-16T10:17:29.851Z,40.10
2019-04-16T10:20:00.919Z,40.06
2019-04-16T10:22:32.241Z,40.06
2019-04-16T10:25:06.417Z,39.55
2019-04-16T10:27:40.353Z,38.61
2019-04-16T10:30:30.858Z,38.46
2019-04-16T10:33:02.238Z,39.23
2019-04-16T10:35:33.589Z,38.82
2019-04-16T10:38:15.615Z,38.28
2019-04-16T10:40:51.726Z,38.92
2019-04-16T10:43:44.644Z,40.12
2019-04-16T10:46:42.281Z,38.31
2019-04-16T10:49:19.490Z,38.65
2019-04-16T10:52:04.635Z,38.24
2019-04-16T10:54:43.454Z,38.46
2019-04-16T10:57:38.407Z,38.68
2019-04-16T11:00:35.446Z,39.21
2019-04-16T11:03:14.969Z,40.04
2019-04-16T11:06:05.297Z,38.50
2019-04-16T11:08:37.056Z,37.69
2019-04-16T11:11:08.429Z,37.73
2019-04-16T11:13:58.323Z,38.13
2019-04-16T11:16:18.693Z,37.71
2019-04-16T11:18:49.913Z,37.69
2019-04-16T11:21:21.399Z,38.64
2019-04-16T11:23:52.566Z,38.11
2019-04-16T11:26:23.745Z,37.46
2019-04-16T11:28:54.992Z,38.64
2019-04-16T11:31:26.813Z,37.72
2019-04-16T11:33:58.060Z,37.54
2019-04-16T11:36:31.632Z,37.33
2019-04-16T11:39:04.034Z,39.23
2019-04-16T11:41:36.241Z,38.34
2019-04-16T11:44:14.774Z,37.70
2019-04-16T11:46:45.748Z,38.15
2019-04-16T11:49:17.094Z,37.77
2019-04-16T11:51:48.296Z,38.30
2019-04-16T11:54:19.686Z,38.21
2019-04-16T11:56:50.873Z,38.20
2019-04-16T11:59:22.185Z,38.53
2019-04-16T12:02:05.124Z,39.14
2019-04-16T12:04:58.837Z,39.24
2019-04-16T12:07:58.060Z,38.19
2019-04-16T12:10:53.849Z,38.71
2019-04-16T12:13:44.959Z,38.62
2019-04-16T12:16:28.196Z,38.80
2019-04-16T12:19:17.759Z,40.07
2019-04-16T12:21:59.760Z,40.07
2019-04-16T12:25:04.958Z,41.00
2019-04-16T12:27:50.044Z,41.52
2019-04-16T12:30:40.153Z,42.20
2019-04-16T12:33:31.970Z,44.87
2019-04-16T12:36:22.377Z,47.22
2019-04-16T12:39:01.652Z,49.83
2019-04-16T12:41:49.393Z,50.38
2019-04-16T12:44:50.120Z,51.72
2019-04-16T12:47:40.580Z,52.06
2019-04-16T12:50:29.710Z,52.04
2019-04-16T12:53:13.801Z,53.10
2019-04-16T12:56:08.577Z,52.81
2019-04-16T12:58:44.140Z,51.94
2019-04-16T13:01:37.316Z,51.91
2019-04-16T13:04:12.787Z,52.97
2019-04-16T13:07:09.149Z,53.27
2019-04-16T13:10:08.679Z,52.85
2019-04-16T13:13:00.145Z,52.21
2019-04-16T13:15:45.065Z,51.04
2019-04-16T13:18:23.599Z,51.52
2019-04-16T13:21:03.857Z,51.97
2019-04-16T13:23:38.541Z,52.24
2019-04-16T13:26:27.714Z,52.67
2019-04-16T13:29:00.314Z,51.74
2019-04-16T13:31:31.375Z,51.51
2019-04-16T13:34:02.548Z,51.40
2019-04-16T13:36:33.668Z,49.20
2019-04-16T13:39:20.909Z,50.51
2019-04-16T13:41:51.999Z,49.66
2019-04-16T13:44:25.437Z,49.28
2019-04-16T13:47:01.331Z,48.82
2019-04-16T13:49:40.619Z,47.23
2019-04-16T13:52:17.013Z,45.23
2019-04-16T13:55:10.562Z,44.76
2019-04-16T13:57:42.538Z,44.20
2019-04-16T14:00:19.935Z,43.93
2019-04-16T14:02:54.145Z,44.40
2019-04-16T14:05:25.241Z,44.05
2019-04-16T14:07:56.363Z,43.76
2019-04-16T14:10:27.490Z,44.17
2019-04-16T14:12:58.925Z,43.04
2019-04-16T14:15:39.071Z,42.56
2019-04-16T14:18:06.451Z,43.21
2019-04-16T14:20:37.557Z,42.88
2019-04-16T14:23:08.666Z,42.06
2019-04-16T14:25:39.708Z,41.34
2019-04-16T14:28:11.177Z,41.23
2019-04-16T14:30:46.191Z,40.96
2019-04-16T14:33:25.167Z,40.52
2019-04-16T14:35:56.192Z,40.23
2019-04-16T14:38:36.959Z,40.92
2019-04-16T14:41:08.542Z,41.39
2019-04-16T14:43:42.320Z,41.84
2019-04-16T14:46:13.485Z,41.46
2019-04-16T14:48:46.467Z,40.56
2019-04-16T14:51:17.473Z,40.18
2019-04-16T14:53:56.840Z,40.17
2019-04-16T14:56:36.711Z,41.15
2019-04-16T14:59:38.745Z,41.72
2019-04-16T15:02:29.374Z,41.54
2019-04-16T15:05:09.277Z,41.09
2019-04-16T15:07:59.900Z,41.47
2019-04-16T15:11:05.312Z,41.36
2019-04-16T15:13:58.323Z,41.63
2019-04-16T15:16:40.019Z,42.35
2019-04-16T15:19:25.758Z,42.41
2019-04-16T15:22:00.122Z,42.72
2019-04-16T15:24:38.156Z,41.88
2019-04-16T15:27:18.562Z,42.45
2019-04-16T15:29:56.504Z,43.00
2019-04-16T15:32:59.751Z,43.57
2019-04-16T15:35:37.783Z,42.70
2019-04-16T15:38:29.608Z,41.67
2019-04-16T15:41:35.068Z,41.56
2019-04-16T15:44:10.263Z,41.60
2019-04-16T15:47:00.679Z,41.83
2019-04-16T15:49:37.510Z,41.03
2019-04-16T15:52:27.290Z,40.88
2019-04-16T15:55:16.333Z,41.01
2019-04-16T15:58:13.111Z,41.58
2019-04-16T16:00:52.697Z,42.05
2019-04-16T16:03:52.027Z,42.14
2019-04-16T16:06:24.743Z,42.54
2019-04-16T16:09:20.887Z,42.72
2019-04-16T16:11:57.025Z,43.43
2019-04-16T16:14:33.214Z,44.37
2019-04-16T16:17:01.706Z,44.92
2019-04-16T16:19:32.855Z,45.79
2019-04-16T16:22:03.959Z,47.70
2019-04-16T16:24:36.064Z,48.71
2019-04-16T16:27:07.724Z,49.30
2019-04-16T16:29:38.869Z,50.05
2019-04-16T16:32:10.060Z,51.31
2019-04-16T16:34:41.217Z,51.14
2019-04-16T16:37:12.574Z,51.04
2019-04-16T16:39:43.714Z,52.02
2019-04-16T16:42:15.830Z,51.66
2019-04-16T16:44:49.505Z,51.53
2019-04-16T16:47:48.853Z,51.65
2019-04-16T16:50:20.051Z,51.04
2019-04-16T16:53:05.609Z,50.92
2019-04-16T16:55:39.606Z,51.05
2019-04-16T16:58:41.800Z,50.86
2019-04-16T17:01:23.344Z,51.30
2019-04-16T17:04:19.418Z,51.48
2019-04-16T17:06:50.741Z,51.46
2019-04-16T17:09:27.155Z,52.21
2019-04-16T17:12:04.305Z,52.32
2019-04-16T17:14:37.742Z,52.72
2019-04-16T17:17:14.329Z,52.74
2019-04-16T17:19:41.630Z,53.46
2019-04-16T17:22:14.633Z,53.58
2019-04-16T17:24:45.674Z,53.70
2019-04-16T17:27:16.880Z,53.57
2019-04-16T17:29:49.982Z,54.01
2019-04-16T17:32:22.125Z,53.71
2019-04-16T17:34:53.656Z,53.73
2019-04-16T17:37:27.935Z,53.70
2019-04-16T17:40:05.294Z,53.59
2019-04-16T17:42:39.237Z,53.72
2019-04-16T17:45:28.324Z,53.73
2019-04-16T17:48:14.178Z,53.81
2019-04-16T17:51:04.255Z,53.65
2019-04-16T17:53:45.635Z,53.33
2019-04-16T17:56:35.609Z,53.37
2019-04-16T17:59:09.830Z,53.53
2019-04-16T18:01:58.778Z,53.12
2019-04-16T18:04:38.505Z,52.70
2019-04-16T18:07:34.255Z,52.54
2019-04-16T18:10:26.581Z,52.41
2019-04-16T18:13:15.451Z,52.63
2019-04-16T18:16:16.672Z,52.24
2019-04-16T18:19:28.754Z,52.41
2019-04-16T18:31:14.109Z,52.31
2019-04-16T18:34:14.562Z,52.69
2019-04-16T18:37:37.113Z,53.43
2019-04-16T18:40:31.156Z,53.41
2019-04-16T18:43:27.321Z,54.72
2019-04-16T18:46:27.064Z,55.53
2019-04-16T18:49:05.919Z,56.26
2019-04-16T18:51:47.659Z,56.31
2019-04-16T18:54:32.943Z,56.15
2019-04-16T18:57:05.596Z,56.12
2019-04-16T18:59:36.876Z,56.70
2019-04-16T19:02:09.786Z,56.95
2019-04-16T19:04:41.162Z,57.54
2019-04-16T19:07:12.543Z,57.84
2019-04-16T19:09:43.813Z,57.91
2019-04-16T19:12:16.160Z,57.72
2019-04-16T19:14:52.355Z,57.54
2019-04-16T19:17:23.652Z,57.38
2019-04-16T19:19:54.938Z,58.08
2019-04-16T19:22:26.125Z,58.37
2019-04-16T19:24:57.447Z,58.19
2019-04-16T19:27:34.346Z,58.25
2019-04-16T19:30:06.631Z,58.18
2019-04-16T19:32:37.905Z,57.96
2019-04-16T19:35:11.402Z,58.13
2019-04-16T19:37:42.382Z,58.45
2019-04-16T19:40:16.095Z,58.48
2019-04-16T19:42:50.496Z,58.68
2019-04-16T19:45:22.304Z,58.58
2019-04-16T19:47:53.668Z,58.57
2019-04-16T19:50:25.118Z,58.36
2019-04-16T19:52:56.362Z,58.61
2019-04-16T19:55:27.687Z,58.48
2019-04-16T19:57:58.962Z,58.88
2019-04-16T20:00:30.544Z,59.21
2019-04-16T20:03:01.976Z,58.89
2019-04-16T20:05:33.324Z,59.01
2019-04-16T20:08:04.637Z,59.06
2019-04-16T20:10:35.944Z,58.71
2019-04-16T20:13:07.306Z,58.92
2019-04-16T20:15:43.309Z,58.67
2019-04-16T20:18:11.816Z,58.87
2019-04-16T20:20:42.976Z,58.77
2019-04-16T20:23:14.269Z,58.62
2019-04-16T20:25:45.603Z,58.81
2019-04-16T20:28:16.903Z,58.98
2019-04-16T20:30:48.100Z,59.26
2019-04-16T20:33:20.316Z,59.47
2019-04-16T20:35:53.274Z,59.55
2019-04-16T20:38:29.050Z,59.72
2019-04-16T20:40:57.579Z,59.76
2019-04-16T20:43:28.862Z,59.72
2019-04-16T20:46:00.506Z,59.58
2019-04-16T20:48:31.872Z,59.85
2019-04-16T20:51:03.253Z,59.82
2019-04-16T20:53:34.496Z,60.00
2019-04-16T20:56:10.036Z,60.28
2019-04-16T20:58:39.284Z,60.21
2019-04-16T21:01:10.610Z,60.21
2019-04-16T21:03:41.903Z,60.36
2019-04-16T21:06:13.336Z,60.53
2019-04-16T21:08:48.246Z,60.25
2019-04-16T21:11:19.457Z,60.24
2019-04-16T21:13:50.792Z,59.93
2019-04-16T21:16:21.949Z,59.97
2019-04-16T21:18:53.140Z,60.25
2019-04-16T21:21:24.456Z,60.53
2019-04-16T21:24:06.880Z,60.42
2019-04-16T21:26:33.760Z,60.34
2019-04-16T21:29:14.244Z,60.32
2019-04-16T21:31:47.548Z,60.47
2019-04-16T21:34:30.244Z,60.36
2019-04-16T21:37:15.966Z,60.03
2019-04-16T21:39:55.646Z,60.51
2019-04-16T21:42:26.875Z,60.45
2019-04-16T21:44:58.116Z,60.19
2019-04-16T21:47:29.446Z,60.61
2019-04-16T21:50:01.833Z,60.58
2019-04-16T21:52:33.115Z,60.42
2019-04-16T21:55:06.357Z,60.71
2019-04-16T21:57:37.672Z,60.67
2019-04-16T22:00:17.485Z,60.74
2019-04-16T22:02:50.846Z,61.22
2019-04-16T22:05:23.120Z,61.49
2019-04-16T22:07:57.067Z,61.44
2019-04-16T22:10:27.318Z,61.26
2019-04-16T22:12:58.526Z,61.00
2019-04-16T22:15:29.904Z,61.33
2019-04-16T22:18:07.585Z,61.69
2019-04-16T22:20:35.706Z,61.72
2019-04-16T22:23:07.841Z,61.80
2019-04-16T22:25:39.383Z,61.93
2019-04-16T22:28:12.748Z,61.63
2019-04-16T22:30:45.349Z,61.98
2019-04-16T22:33:16.813Z,62.35
2019-04-16T22:35:48.090Z,62.37
2019-04-16T22:38:23.942Z,62.27
2019-04-16T22:41:17.168Z,62.17
2019-04-16T22:44:02.001Z,62.37
2019-04-16T22:46:42.267Z,62.10
2019-04-16T22:49:13.435Z,61.94
2019-04-16T22:51:44.633Z,62.20
2019-04-16T22:54:17.639Z,62.27
2019-04-16T22:56:52.935Z,62.26
2019-04-16T22:59:24.113Z,62.54
2019-04-16T23:01:55.313Z,62.68
2019-04-16T23:04:27.174Z,62.55
2019-04-16T23:06:58.645Z,62.41
2019-04-16T23:09:31.248Z,62.51
2019-04-16T23:12:02.745Z,62.54
2019-04-16T23:14:34.951Z,62.46
2019-04-16T23:17:06.941Z,62.37
2019-04-16T23:19:39.161Z,62.58
2019-04-16T23:22:14.261Z,62.67
2019-04-16T23:24:43.548Z,62.87
2019-04-16T23:27:15.138Z,62.73
2019-04-16T23:29:47.536Z,62.87
2019-04-16T23:32:19.715Z,63.10
2019-04-16T23:34:50.992Z,63.12
2019-04-16T23:37:23.248Z,63.07
2019-04-16T23:39:55.167Z,63.04
2019-04-16T23:42:26.496Z,63.50
2019-04-16T23:45:12.999Z,63.30
2019-04-16T23:48:15.815Z,63.58
2019-04-16T23:51:07.546Z,63.58
2019-04-16T23:53:49.591Z,63.75
2019-04-16T23:56:25.872Z,63.73
2019-04-16T23:59:02.941Z,63.76
